Wolverton, Minnesota
Current Conditions -  °F | °C
As of 6:31 AM on Monday 26 Jan 2015 (Local Time) from KJKJ Reporting Station
Clear Clear  
Wind Chill: 28°   Ceiling: Unl
Heat Index: 36°   Visibility: 10mi
Dew Point: 34°   Wind: 10mph
Humidity: 93%   Direction: 300°WNW
Pressure: 29.7"   Gusts: NA
Location:  46.56°N, 96.73°W
Report Text: KJKJ 261231Z AUTO 30009KT 10SM CLR 02/01 A2970 RMK AO2
Loading
Personal Weather Stations






























Interactive Weather Map New forecast layout! Learn more

10-Day Weather Forecast

Advertisements
Track Severe Weather on mobile